Latest Weather Observations for The Monument

IDQ60801

Issued at 8:02 am EST Monday 27 April 2015 (issued every 30 minutes, with the page automatically refreshed every 10 minutes)

About weather observations | Map of weather stations | Latest weather observations for QLD | Other Formats
Station Details ID: 037034 Name: THE MONUMENT AIRPORT Lat: -21.81 Lon: 139.93 Height: 288.4 m
Data from the previous 72 hours. | See also: Recent months at The Monument
Date/Time
EST
Temp
°C
App
Temp
°C
Dew
Point
Rel
Hum
%
Delta-T
°C
Wind Press
QNH
hPa
Press
MSL
hPa
Rain
since 9 am
mm
Dir
 
Spd
km/h
Gust
km/h
Spd
kts
Gust
kts
27/08:00am 12.6 8.9 -0.3 41 5.4 S 9 11 5 6 1022.1 1020.6 0.0
27/07:30am 10.9 7.1 -0.5 45 4.6 SSE 9 11 5 6 1022.0 1020.5 0.0
27/07:00am 10.1 6.3 -0.7 47 4.3 SSE 9 11 5 6 1021.9 1020.4 0.0
27/06:30am 9.8 6.3 -1.3 46 4.4 S 7 9 4 5 1021.5 1020.0 0.0
27/06:00am 10.3 6.9 -0.8 46 4.5 S 7 9 4 5 1021.2 1019.7 0.0
27/05:30am 10.3 6.8 -1.4 44 4.6 S 7 9 4 5 1020.9 1019.4 0.0
27/05:00am 10.9 7.4 -1.2 43 4.8 S 7 11 4 6 1020.8 1019.3 0.0
27/04:30am 10.7 6.8 -1.4 43 4.8 SSW 9 11 5 6 1020.7 1019.2 0.0
27/04:00am 10.7 7.1 -2.3 40 5.1 S 7 9 4 5 1020.7 1019.2 0.0
27/03:30am 10.3 6.9 -1.7 43 4.7 S 6 7 3 4 1020.6 1019.1 0.0
27/03:00am 10.6 7.1 -1.4 43 4.8 S 7 7 4 4 1020.5 1018.9 0.0
27/02:30am 11.2 7.6 -1.9 40 5.2 S 7 7 4 4 1020.4 1018.8 0.0
27/02:00am 12.2 8.8 -2.0 37 5.7 S 6 7 3 4 1020.5 1018.9 0.0
27/01:30am 13.5 10.0 -1.6 35 6.1 S 7 9 4 5 1020.7 1019.2 0.0
27/01:00am 14.9 10.7 -1.2 33 6.7 SSE 11 15 6 8 1020.5 1018.9 0.0
27/12:30am 15.8 10.9 -0.8 32 7.1 SSE 15 19 8 10 1020.7 1019.2 0.0
27/12:00am 16.3 11.4 -0.8 31 7.3 SSE 15 20 8 11 1020.8 1019.3 0.0
 
Date/Time
EST
Temp
°C
App
Temp
°C
Dew
Point
Rel
Hum
%
Delta-T
°C
Wind Press
QNH
hPa
Press
MSL
hPa
Rain
since 9 am
mm
Dir
 
Spd
km/h
Gust
km/h
Spd
kts
Gust
kts
26/11:30pm 16.5 11.5 -1.1 30 7.5 SSE 15 20 8 11 1021.0 1019.5 0.0
26/11:00pm 17.2 11.8 -1.4 28 7.9 SSE 17 24 9 13 1021.1 1019.6 0.0
26/10:30pm 17.9 12.5 -1.3 27 8.2 SSE 17 22 9 12 1021.1 1019.6 0.0
26/10:00pm 17.9 12.9 -1.3 27 8.2 SSE 15 17 8 9 1021.2 1019.7 0.0
26/09:30pm 18.3 13.3 -1.5 26 8.5 SSE 15 19 8 10 1020.9 1019.4 0.0
26/09:00pm 19.1 13.6 -1.9 24 9.0 SSE 17 20 9 11 1020.7 1019.2 0.0
26/08:30pm 19.6 14.6 -1.5 24 9.2 SSE 15 20 8 11 1020.4 1018.8 0.0
26/08:00pm 20.3 14.9 -1.5 23 9.5 SSE 17 22 9 12 1019.9 1018.4 0.0
26/07:30pm 20.9 15.5 -1.0 23 9.7 SSE 17 22 9 12 1019.7 1018.2 0.0
26/07:00pm 21.5 15.8 -0.5 23 9.9 SSE 19 26 10 14 1019.3 1017.8 0.0
26/06:30pm 22.2 16.4 0.1 23 10.1 SSE 20 28 11 15 1019.1 1017.6 0.0
26/06:00pm 23.1 17.3 0.2 22 10.5 SSE 20 30 11 16 1018.7 1017.2 0.0
26/05:30pm 23.8 17.5 1.4 23 10.6 SSE 24 33 13 18 1018.4 1016.9 0.0
26/05:00pm 24.3 17.3 1.9 23 10.8 SSE 28 37 15 20 1018.1 1016.6 0.0
26/04:30pm 24.7 18.2 2.8 24 10.7 SSE 26 35 14 19 1017.9 1016.4 0.0
26/04:00pm 24.7 18.1 2.2 23 10.9 SSE 26 39 14 21 1018.0 1016.5 0.0
26/03:30pm 24.4 18.0 3.1 25 10.5 SSE 26 39 14 21 1018.0 1016.5 0.0
26/03:00pm 25.2 18.8 3.2 24 10.9 S 26 37 14 20 1018.2 1016.7 0.0
26/02:30pm 24.9 18.9 3.5 25 10.6 SE 24 32 13 17 1018.6 1017.1 0.0
26/02:00pm 24.0 17.8 2.2 24 10.5 SSE 24 39 13 21 1018.8 1017.3 0.0
26/01:30pm 24.0 18.2 4.4 28 9.9 SSE 24 39 13 21 1019.1 1017.6 0.0
26/01:00pm 23.2 16.6 4.2 29 9.4 SSE 28 37 15 20 1019.5 1018.0 0.0
26/12:30pm 22.9 16.7 4.4 30 9.2 SSE 26 44 14 24 1020.0 1018.5 0.0
26/12:00pm 22.1 16.0 4.6 32 8.7 SSE 26 33 14 18 1020.8 1019.3 0.0
26/11:30am 21.5 15.0 4.6 33 8.4 SE 28 41 15 22 1021.3 1019.8 0.0
26/11:00am 20.6 14.2 5.0 36 7.7 SSE 28 37 15 20 1021.8 1020.3 0.0
26/10:30am 19.8 13.1 5.5 39 7.1 SSE 30 41 16 22 1022.0 1020.5 0.0
26/10:00am 18.5 11.4 5.7 43 6.3 SSE 32 43 17 23 1022.1 1020.6 0.0
26/09:30am 17.5 10.7 5.1 44 6.0 SSE 30 43 16 23 1022.1 1020.6 0.0
26/09:00am 16.4 10.3 4.8 46 5.6 S 26 35 14 19 1021.7 1020.2 0.0
26/08:30am 15.0 9.1 3.8 47 5.2 S 24 35 13 19 1021.4 1019.9 0.0
26/08:00am 13.4 8.0 2.6 48 4.8 S 20 28 11 15 1021.2 1019.7 0.0
26/07:30am 11.7 7.5 1.9 51 4.3 S 13 17 7 9 1021.0 1019.5 0.0
26/07:00am 10.7 6.9 1.5 53 3.9 SSE 11 15 6 8 1020.6 1019.1 0.0
26/06:30am 10.9 6.7 1.4 52 4.0 S 13 19 7 10 1020.2 1018.7 0.0
26/06:00am 10.8 6.5 1.1 51 4.1 S 13 17 7 9 1020.2 1018.7 0.0
26/05:30am 10.5 6.1 0.3 49 4.2 S 13 17 7 9 1020.1 1018.6 0.0
26/05:00am 10.8 6.3 0.0 47 4.4 S 13 17 7 9 1020.0 1018.5 0.0
26/04:30am 10.6 6.1 -0.5 46 4.5 S 13 17 7 9 1020.0 1018.5 0.0
26/04:00am 10.4 6.6 -1.0 45 4.6 S 9 11 5 6 1020.1 1018.6 0.0
26/03:30am 11.0 6.7 -1.4 42 5.0 S 11 13 6 7 1019.9 1018.4 0.0
26/03:00am 11.4 7.2 -1.0 42 5.0 S 11 13 6 7 1019.9 1018.4 0.0
26/02:30am 11.4 7.6 -1.0 42 5.0 S 9 13 5 7 1020.0 1018.5 0.0
26/02:00am 11.6 7.7 -1.2 41 5.2 SSW 9 11 5 6 1019.8 1018.3 0.0
26/01:30am 12.7 8.9 -0.5 40 5.5 S 9 11 5 6 1019.9 1018.4 0.0
26/01:00am 12.4 8.9 -1.1 39 5.5 SSE 7 9 4 5 1020.0 1018.5 0.0
26/12:30am 13.2 9.8 -0.8 38 5.8 SSE 7 11 4 6 1020.1 1018.6 0.0
26/12:00am 14.3 10.1 -0.6 36 6.3 S 11 13 6 7 1020.2 1018.7 0.0
 
Date/Time
EST
Temp
°C
App
Temp
°C
Dew
Point
Rel
Hum
%
Delta-T
°C
Wind Press
QNH
hPa
Press
MSL
hPa
Rain
since 9 am
mm
Dir
 
Spd
km/h
Gust
km/h
Spd
kts
Gust
kts
25/11:30pm 15.5 11.0 -0.3 34 6.8 S 13 15 7 8 1020.4 1018.8 0.0
25/11:00pm 16.2 11.4 -0.1 33 7.0 S 15 17 8 9 1020.2 1018.7 0.0
25/10:30pm 16.5 11.7 0.2 33 7.1 S 15 19 8 10 1020.1 1018.6 0.0
25/10:00pm 16.7 12.2 -0.1 32 7.3 S 13 17 7 9 1020.0 1018.5 0.0
25/09:30pm 17.8 13.0 0.5 31 7.7 S 15 20 8 11 1020.0 1018.5 0.0
25/09:00pm 18.3 13.7 1.3 32 7.7 S 15 20 8 11 1019.9 1018.4 0.0
25/08:30pm 18.9 14.4 1.9 32 7.9 S 15 20 8 11 1019.5 1018.0 0.0
25/08:00pm 19.7 14.9 2.6 32 8.0 S 17 22 9 12 1019.0 1017.5 0.0
25/07:30pm 20.5 14.7 2.3 30 8.6 S 22 30 12 16 1018.4 1016.9 0.0
25/07:00pm 21.1 15.7 2.4 29 8.9 S 20 28 11 15 1017.9 1016.4 0.0
25/06:30pm 21.7 15.5 2.4 28 9.2 S 24 33 13 18 1017.5 1016.0 0.0
25/06:00pm 22.6 16.8 2.1 26 9.8 S 22 33 12 18 1017.2 1015.6 0.0
25/05:30pm 23.4 16.5 2.3 25 10.2 S 28 35 15 19 1017.1 1015.5 0.0
25/05:00pm 24.2 17.3 2.4 24 10.6 S 28 39 15 21 1016.8 1015.2 0.0
25/04:30pm 24.4 17.1 2.5 24 10.7 S 30 41 16 22 1016.4 1014.9 0.0
25/04:08pm 24.6 16.9 2.1 23 10.9 S 32 50 17 27 1016.2 1014.7 0.0
25/04:00pm 25.1 17.4 2.5 23 11.0 S 32 46 17 25 1016.1 1014.6 0.0
25/03:30pm 25.0 17.3 2.4 23 11.0 S 32 44 17 24 1016.0 1014.5 0.0
25/03:00pm 24.7 17.5 2.8 24 10.7 S 30 43 16 23 1016.1 1014.6 0.0
25/02:49pm 25.1 17.8 2.5 23 11.1 S 30 50 16 27 1016.1 1014.6 0.0
25/02:30pm 24.8 16.6 2.9 24 10.8 S 35 48 19 26 1016.2 1014.7 0.0
25/02:00pm 25.0 17.3 3.6 25 10.7 S 33 54 18 29 1016.5 1015.0 0.0
25/01:30pm 24.2 16.5 3.5 26 10.2 S 33 56 18 30 1017.0 1015.4 0.0
25/01:00pm 24.1 17.1 4.0 27 10.0 S 30 48 16 26 1017.2 1015.6 0.0
25/12:50pm 24.0 16.6 3.9 27 10.0 S 32 50 17 27 1017.3 1015.7 0.0
25/12:30pm 23.4 16.0 3.9 28 9.7 S 32 41 17 22 1017.7 1016.2 0.0
25/12:00pm 23.6 16.4 5.0 30 9.4 S 32 46 17 25 1018.3 1016.8 0.0
25/11:30am 22.0 14.1 4.6 32 8.7 S 35 48 19 26 1018.8 1017.3 0.0
25/11:00am 21.6 13.9 5.5 35 8.1 SSE 35 48 19 26 1019.0 1017.5 0.0
25/10:30am 20.8 12.6 4.8 35 7.9 S 37 50 20 27 1019.2 1017.7 0.0
25/10:00am 19.8 11.8 5.5 39 7.1 SSE 37 50 20 27 1019.2 1017.7 0.0
25/09:30am 19.5 11.6 4.4 37 7.4 S 35 46 19 25 1019.0 1017.5 0.0
25/09:00am 18.3 10.7 3.0 36 7.2 S 32 44 17 24 1018.7 1017.2 0.0
25/08:30am 17.9 11.4 0.6 31 7.7 S 24 35 13 19 1018.2 1016.7 0.0
25/08:00am 16.9 12.0 -0.8 30 7.6 S 15 20 8 11 1017.7 1016.2 0.0
25/07:30am 15.3 11.0 -1.7 31 7.1 S 11 15 6 8 1016.9 1015.3 0.0
25/07:00am 14.3 9.5 -2.2 32 6.7 S 13 15 7 8 1016.6 1015.1 0.0
25/06:30am 14.4 10.0 -2.5 31 6.8 S 11 15 6 8 1016.1 1014.6 0.0
25/06:00am 14.7 10.3 -2.2 31 6.9 S 11 13 6 7 1015.9 1014.4 0.0
25/05:30am 14.9 10.9 -2.5 30 7.1 S 9 11 5 6 1015.7 1014.2 0.0
25/05:00am 15.2 10.8 -2.2 30 7.1 S 11 13 6 7 1015.5 1014.0 0.0
25/04:30am 14.6 10.6 -1.9 32 6.8 SSW 9 11 5 6 1015.3 1013.8 0.0
25/04:00am 13.9 10.9 -2.1 33 6.5 S 4 7 2 4 1015.3 1013.8 0.0
25/03:30am 13.9 11.6 -2.1 33 6.5 CALM 0 0 0 0 1015.3 1013.8 0.0
25/03:00am 14.5 10.8 -2.8 30 6.9 SSW 7 9 4 5 1015.2 1013.7 0.0
25/02:30am 15.6 12.1 -1.4 31 7.1 SSW 7 9 4 5 1015.1 1013.6 0.0
25/02:00am 15.7 12.1 -1.8 30 7.3 SW 7 7 4 4 1015.2 1013.7 0.0
25/01:30am 16.1 12.5 -2.4 28 7.6 SSW 7 9 4 5 1015.2 1013.7 0.0
25/01:00am 16.9 13.6 -1.2 29 7.7 SSW 6 9 3 5 1015.4 1013.9 0.0
25/12:30am 16.3 14.1 -1.7 29 7.5 CALM 0 0 0 0 1015.5 1014.0 0.0
25/12:00am 18.0 14.5 -1.3 27 8.3 SSW 7 11 4 6 1015.5 1014.0 0.0
 
Date/Time
EST
Temp
°C
App
Temp
°C
Dew
Point
Rel
Hum
%
Delta-T
°C
Wind Press
QNH
hPa
Press
MSL
hPa
Rain
since 9 am
mm
Dir
 
Spd
km/h
Gust
km/h
Spd
kts
Gust
kts
24/11:30pm 18.5 14.6 -1.3 26 8.5 SSW 9 11 5 6 1015.3 1013.8 0.0
24/11:00pm 19.4 15.5 -1.7 24 9.1 SSW 9 13 5 7 1015.5 1014.0 0.0
24/10:30pm 20.1 15.9 -1.1 24 9.3 S 11 15 6 8 1015.2 1013.7 0.0
24/10:00pm 20.1 16.2 -1.7 23 9.5 S 9 11 5 6 1015.4 1013.9 0.0
24/09:30pm 20.7 16.4 -1.8 22 9.8 SSW 11 13 6 7 1015.3 1013.8 0.0
24/09:00pm 21.3 17.0 -1.3 22 10.0 S 11 13 6 7 1015.1 1013.6 0.0
24/08:30pm 21.8 17.5 -1.5 21 10.3 S 11 13 6 7 1014.9 1013.4 0.0
24/08:00pm 22.2 17.9 -1.8 20 10.6 S 11 13 6 7 1014.4 1012.9 0.0
24/07:30pm 23.0 19.1 -1.8 19 11.0 S 9 11 5 6 1014.0 1012.4 0.0
24/07:00pm 24.3 20.4 -1.5 18 11.6 S 9 13 5 7 1013.7 1012.1 0.0
24/06:30pm 25.4 20.6 -2.2 16 12.4 S 13 19 7 10 1013.2 1011.6 0.0
24/06:00pm 26.6 21.4 -3.1 14 13.3 SSW 15 20 8 11 1012.7 1011.2 0.0
24/05:30pm 27.3 21.7 -2.5 14 13.5 SSW 17 24 9 13 1012.5 1011.0 0.0
24/05:00pm 27.7 21.8 -2.2 14 13.7 SSW 19 28 10 15 1012.4 1010.9 0.0
24/04:30pm 27.4 21.3 -2.4 14 13.6 S 20 28 11 15 1012.3 1010.8 0.0
24/04:00pm 28.1 22.1 -1.9 14 13.9 SSW 20 33 11 18 1012.3 1010.8 0.0
24/03:30pm 28.3 22.9 -1.7 14 13.9 SSW 17 28 9 15 1012.3 1010.8 0.0
24/03:00pm 28.0 23.2 -0.1 16 13.4 S 15 20 8 11 1012.3 1010.8 0.0
24/02:30pm 27.4 22.5 -0.6 16 13.2 SW 15 22 8 12 1012.6 1011.1 0.0
24/02:00pm 26.8 21.5 -0.3 17 12.8 SSW 17 26 9 14 1012.8 1011.3 0.0
24/01:30pm 26.3 21.9 0.1 18 12.4 SW 13 28 7 15 1013.2 1011.6 0.0
24/01:00pm 26.6 22.7 1.1 19 12.3 S 11 20 6 11 1013.6 1012.0 0.0
24/12:30pm 25.6 21.7 1.0 20 11.7 SSE 11 20 6 11 1014.4 1012.9 0.0
24/12:00pm 25.4 20.3 0.8 20 11.7 S 17 24 9 13 1014.8 1013.3 0.0
24/11:30am 24.0 18.9 1.0 22 10.9 S 17 22 9 12 1015.3 1013.8 0.0
24/11:00am 23.8 18.7 0.8 22 10.8 SSE 17 24 9 13 1015.9 1014.4 0.0
24/10:30am 23.4 18.4 1.1 23 10.5 SSE 17 24 9 13 1016.2 1014.7 0.0
24/10:00am 21.8 16.6 0.4 24 9.8 SSE 17 22 9 12 1016.3 1014.8 0.0
24/09:30am 20.9 15.8 0.7 26 9.3 SSE 17 24 9 13 1016.2 1014.7 0.0
24/09:00am 20.3 14.8 0.7 27 8.9 SSE 19 24 10 13 1016.1 1014.6 0.0
24/08:30am 19.4 15.1 0.9 29 8.4 SSE 13 17 7 9 1015.8 1014.3 0.0

Other Formats:

Comma delimited format used in spreadsheet applications
http://www.bom.gov.au/fwo/IDQ60801/IDQ60801.94336.axf

JavaScript Object Notation format (JSON) in row-major order
http://www.bom.gov.au/fwo/IDQ60801/IDQ60801.94336.json